This is the latest recevied weather packets stored in our database for station/object CE3SUR-14. If no packets are shown the sender has not sent any weather packets the latest 10 day(s).
| Time | Temp. | Humidity | Pressure | Rain* | Wind** | Luminosity | Snow |
|---|---|---|---|---|---|---|---|
| 1788486067 | 21.11° C | 47% | 963.8 hPa | - | - | - | - |
| 1788484266 | 21.67° C | 47% | 963.8 hPa | - | - | - | - |
| 1788478868 | 22.78° C | 45% | 963.1 hPa | - | - | - | - |
| 1788466265 | 27.78° C | 45% | 962.1 hPa | - | - | - | - |
| 1788448266 | 21.67° C | 50% | 964 hPa | - | - | - | - |
| 1788437466 | 17.78° C | 52% | 963.7 hPa | - | - | - | - |
| 1788432065 | 17.78° C | 52% | 963.1 hPa | - | - | - | - |
| 1788430265 | 18.33° C | 52% | 963 hPa | - | - | - | - |
| 1788428464 | 18.33° C | 52% | 962.8 hPa | - | - | - | - |
| 1788426664 | 18.89° C | 51% | 962.8 hPa | - | - | - | - |
| 1788423064 | 18.89° C | 51% | 962.9 hPa | - | - | - | - |
| 1788421263 | 19.44° C | 51% | 963.1 hPa | - | - | - | - |
| 1788419462 | 19.44° C | 51% | 963.1 hPa | - | - | - | - |
| 1788417662 | 19.44° C | 50% | 963.4 hPa | - | - | - | - |
| 1788415864 | 20° C | 50% | 963.4 hPa | - | - | - | - |
| 1788414064 | 20.56° C | 50% | 963.4 hPa | - | - | - | - |
| 1788412264 | 20.56° C | 49% | 963.3 hPa | - | - | - | - |
| 1788410464 | 20.56° C | 49% | 963.2 hPa | - | - | - | - |
| 1788408663 | 21.11° C | 49% | 963.2 hPa | - | - | - | - |
| 1788406863 | 21.11° C | 49% | 963.3 hPa | - | - | - | - |
| 1788405063 | 21.67° C | 48% | 963.3 hPa | - | - | - | - |
| 1788403263 | 21.67° C | 48% | 963.2 hPa | - | - | - | - |
| 1788372665 | 27.22° C | 39% | 959.3 hPa | - | - | - | - |
| 1788370865 | 26.67° C | 40% | 959.8 hPa | - | - | - | - |
| 1788365682 | 24.44° C | 46% | 960.4 hPa | - | - | - | - |
* Rain since midnight (hover to see other rain measurements)
** Current wind speed in m/s (hover to see current wind gust speed)